sensor_id;sensor_type;location;lat;lon;timestamp;pressure;altitude;pressure_sealevel;temperature;humidity
72359;BME280;60317;48.880;-0.862;2022-12-18T00:00:39;100767.06;;;20.29;22.27
72359;BME280;60317;48.880;-0.862;2022-12-18T00:03:06;100768.91;;;20.28;22.27
72359;BME280;60317;48.880;-0.862;2022-12-18T00:05:34;100764.38;;;20.29;22.37
72359;BME280;60317;48.880;-0.862;2022-12-18T00:08:00;100767.22;;;20.27;22.34
72359;BME280;60317;48.880;-0.862;2022-12-18T00:10:27;100766.22;;;20.28;22.22
72359;BME280;60317;48.880;-0.862;2022-12-18T00:12:53;100767.06;;;20.29;22.35
72359;BME280;60317;48.880;-0.862;2022-12-18T00:15:20;100757.22;;;20.29;22.29
72359;BME280;60317;48.880;-0.862;2022-12-18T00:17:46;100755.50;;;20.28;22.22
72359;BME280;60317;48.880;-0.862;2022-12-18T00:20:14;100756.47;;;20.27;22.41
72359;BME280;60317;48.880;-0.862;2022-12-18T00:22:40;100755.63;;;20.26;22.28
72359;BME280;60317;48.880;-0.862;2022-12-18T00:25:07;100752.94;;;20.26;22.28
72359;BME280;60317;48.880;-0.862;2022-12-18T00:27:33;100752.09;;;20.26;22.23
72359;BME280;60317;48.880;-0.862;2022-12-18T00:29:59;100756.63;;;20.25;22.22
72359;BME280;60317;48.880;-0.862;2022-12-18T00:32:26;100749.41;;;20.26;22.23
72359;BME280;60317;48.880;-0.862;2022-12-18T00:34:52;100745.75;;;20.27;22.33
72359;BME280;60317;48.880;-0.862;2022-12-18T00:37:20;100743.91;;;20.27;22.26
72359;BME280;60317;48.880;-0.862;2022-12-18T00:39:47;100739.53;;;20.26;22.26
72359;BME280;60317;48.880;-0.862;2022-12-18T00:42:14;100734.00;;;20.28;22.19
72359;BME280;60317;48.880;-0.862;2022-12-18T00:44:40;100727.94;;;20.26;22.04
72359;BME280;60317;48.880;-0.862;2022-12-18T00:47:06;100714.53;;;20.26;22.35
72359;BME280;60317;48.880;-0.862;2022-12-18T00:49:33;100720.84;;;20.25;22.26
72359;BME280;60317;48.880;-0.862;2022-12-18T00:51:59;100722.69;;;20.24;22.30
72359;BME280;60317;48.880;-0.862;2022-12-18T00:54:27;100719.16;;;20.24;22.26
72359;BME280;60317;48.880;-0.862;2022-12-18T00:56:53;100719.16;;;20.24;22.22
72359;BME280;60317;48.880;-0.862;2022-12-18T00:59:19;100713.78;;;20.24;22.20
72359;BME280;60317;48.880;-0.862;2022-12-18T01:01:46;100718.16;;;20.25;22.33
72359;BME280;60317;48.880;-0.862;2022-12-18T01:04:13;100712.78;;;20.25;22.30
72359;BME280;60317;48.880;-0.862;2022-12-18T01:06:39;100722.69;;;20.24;22.29
72359;BME280;60317;48.880;-0.862;2022-12-18T01:09:06;100720.97;;;20.23;22.32
72359;BME280;60317;48.880;-0.862;2022-12-18T01:11:33;100716.47;;;20.24;22.30
72359;BME280;60317;48.880;-0.862;2022-12-18T01:14:00;100718.31;;;20.23;22.40
72359;BME280;60317;48.880;-0.862;2022-12-18T01:16:26;100714.78;;;20.23;22.29
72359;BME280;60317;48.880;-0.862;2022-12-18T01:18:53;100727.34;;;20.22;22.43
72359;BME280;60317;48.880;-0.862;2022-12-18T01:21:19;100724.66;;;20.22;22.42
72359;BME280;60317;48.880;-0.862;2022-12-18T01:23:46;100720.13;;;20.23;22.42
72359;BME280;60317;48.880;-0.862;2022-12-18T01:26:13;100727.34;;;20.22;22.29
72359;BME280;60317;48.880;-0.862;2022-12-18T01:28:41;100735.38;;;20.22;22.33
72359;BME280;60317;48.880;-0.862;2022-12-18T01:31:09;100722.94;;;20.21;22.34
72359;BME280;60317;48.880;-0.862;2022-12-18T01:33:35;100710.38;;;20.22;22.37
72359;BME280;60317;48.880;-0.862;2022-12-18T01:36:02;100707.69;;;20.22;22.35
72359;BME280;60317;48.880;-0.862;2022-12-18T01:38:28;100704.13;;;20.21;22.30
72359;BME280;60317;48.880;-0.862;2022-12-18T01:40:56;100696.97;;;20.22;22.25
72359;BME280;60317;48.880;-0.862;2022-12-18T01:46:06;100690.72;;;20.21;22.23
72359;BME280;60317;48.880;-0.862;2022-12-18T01:48:32;100691.59;;;20.22;22.14
72359;BME280;60317;48.880;-0.862;2022-12-18T01:50:58;100696.09;;;20.21;22.33
72359;BME280;60317;48.880;-0.862;2022-12-18T01:53:25;100695.13;;;20.22;22.36
72359;BME280;60317;48.880;-0.862;2022-12-18T01:55:53;100704.03;;;20.23;22.24
72359;BME280;60317;48.880;-0.862;2022-12-18T01:58:20;100693.41;;;20.21;22.37
72359;BME280;60317;48.880;-0.862;2022-12-18T02:00:48;100700.59;;;20.21;22.40
72359;BME280;60317;48.880;-0.862;2022-12-18T02:03:15;100695.25;;;20.21;22.24
72359;BME280;60317;48.880;-0.862;2022-12-18T02:05:44;100692.56;;;20.21;22.30
72359;BME280;60317;48.880;-0.862;2022-12-18T02:08:12;100688.91;;;20.22;22.37
72359;BME280;60317;48.880;-0.862;2022-12-18T02:10:45;100690.84;;;20.20;22.34
72359;BME280;60317;48.880;-0.862;2022-12-18T02:13:14;100690.84;;;20.20;22.35
72359;BME280;60317;48.880;-0.862;2022-12-18T02:15:47;100698.78;;;20.21;22.47
72359;BME280;60317;48.880;-0.862;2022-12-18T02:18:18;100695.25;;;20.21;22.33
72359;BME280;60317;48.880;-0.862;2022-12-18T02:20:47;100691.72;;;20.20;22.35
72359;BME280;60317;48.880;-0.862;2022-12-18T02:23:18;100689.03;;;20.20;22.35
72359;BME280;60317;48.880;-0.862;2022-12-18T02:25:58;100677.44;;;20.20;22.38
72359;BME280;60317;48.880;-0.862;2022-12-18T02:28:30;100675.50;;;20.22;22.29
72359;BME280;60317;48.880;-0.862;2022-12-18T02:30:57;100670.13;;;20.22;22.33
72359;BME280;60317;48.880;-0.862;2022-12-18T02:33:26;100679.13;;;20.21;22.47
72359;BME280;60317;48.880;-0.862;2022-12-18T02:35:53;100676.47;;;20.21;22.44
72359;BME280;60317;48.880;-0.862;2022-12-18T02:38:20;100666.72;;;20.20;22.56
72359;BME280;60317;48.880;-0.862;2022-12-18T02:40:47;100655.97;;;20.20;22.36
72359;BME280;60317;48.880;-0.862;2022-12-18T02:43:16;100656.81;;;20.20;22.47
72359;BME280;60317;48.880;-0.862;2022-12-18T02:45:46;100647.91;;;20.20;22.54
72359;BME280;60317;48.880;-0.862;2022-12-18T02:48:13;100643.53;;;20.19;22.46
72359;BME280;60317;48.880;-0.862;2022-12-18T02:50:41;100639.88;;;20.20;22.40
72359;BME280;60317;48.880;-0.862;2022-12-18T02:53:13;100639.88;;;20.20;22.38
72359;BME280;60317;48.880;-0.862;2022-12-18T02:55:47;100639.03;;;20.19;22.28
72359;BME280;60317;48.880;-0.862;2022-12-18T02:58:20;100641.81;;;20.18;22.56
72359;BME280;60317;48.880;-0.862;2022-12-18T03:00:51;100648.91;;;20.19;22.47
72359;BME280;60317;48.880;-0.862;2022-12-18T03:03:21;100655.13;;;20.19;22.40
72359;BME280;60317;48.880;-0.862;2022-12-18T03:05:51;100647.19;;;20.18;22.41
72359;BME280;60317;48.880;-0.862;2022-12-18T03:08:18;100642.69;;;20.18;22.49
72359;BME280;60317;48.880;-0.862;2022-12-18T03:10:48;100653.44;;;20.18;22.51
72359;BME280;60317;48.880;-0.862;2022-12-18T03:13:16;100660.59;;;20.18;22.61
72359;BME280;60317;48.880;-0.862;2022-12-18T03:15:48;100661.59;;;20.17;22.60
72359;BME280;60317;48.880;-0.862;2022-12-18T03:18:16;100666.09;;;20.16;22.64
72359;BME280;60317;48.880;-0.862;2022-12-18T03:20:43;100664.41;;;20.15;22.59
72359;BME280;60317;48.880;-0.862;2022-12-18T03:23:11;100664.28;;;20.17;22.61
72359;BME280;60317;48.880;-0.862;2022-12-18T03:25:38;100657.91;;;20.18;22.64
72359;BME280;60317;48.880;-0.862;2022-12-18T03:28:06;100666.97;;;20.17;22.47
72359;BME280;60317;48.880;-0.862;2022-12-18T03:30:34;100653.69;;;20.15;22.55
72359;BME280;60317;48.880;-0.862;2022-12-18T03:33:07;100641.13;;;20.16;22.63
72359;BME280;60317;48.880;-0.862;2022-12-18T03:35:36;100639.28;;;20.16;22.67
72359;BME280;60317;48.880;-0.862;2022-12-18T03:38:03;100638.44;;;20.16;22.55
72359;BME280;60317;48.880;-0.862;2022-12-18T03:40:31;100650.16;;;20.15;22.52
72359;BME280;60317;48.880;-0.862;2022-12-18T03:43:02;100645.63;;;20.15;22.67
72359;BME280;60317;48.880;-0.862;2022-12-18T03:45:32;100651.84;;;20.16;22.69
72359;BME280;60317;48.880;-0.862;2022-12-18T03:48:01;100651.94;;;20.14;22.54
72359;BME280;60317;48.880;-0.862;2022-12-18T03:50:35;100662.69;;;20.14;22.64
72359;BME280;60317;48.880;-0.862;2022-12-18T03:53:05;100657.22;;;20.16;22.45
72359;BME280;60317;48.880;-0.862;2022-12-18T03:55:36;100648.31;;;20.15;22.56
72359;BME280;60317;48.880;-0.862;2022-12-18T03:58:04;100666.25;;;20.15;22.74
72359;BME280;60317;48.880;-0.862;2022-12-18T04:00:31;100680.50;;;20.15;22.63
72359;BME280;60317;48.880;-0.862;2022-12-18T04:02:59;100676.97;;;20.15;22.71
72359;BME280;60317;48.880;-0.862;2022-12-18T04:05:26;100677.94;;;20.14;22.71
72359;BME280;60317;48.880;-0.862;2022-12-18T04:07:55;100676.25;;;20.13;22.63
72359;BME280;60317;48.880;-0.862;2022-12-18T04:10:22;100664.66;;;20.12;22.63
72359;BME280;60317;48.880;-0.862;2022-12-18T04:12:48;100666.34;;;20.13;22.71
72359;BME280;60317;48.880;-0.862;2022-12-18T04:15:15;100666.50;;;20.12;22.74
72359;BME280;60317;48.880;-0.862;2022-12-18T04:17:43;100678.94;;;20.13;22.61
72359;BME280;60317;48.880;-0.862;2022-12-18T04:20:12;100674.41;;;20.13;22.69
72359;BME280;60317;48.880;-0.862;2022-12-18T04:22:39;100682.47;;;20.13;22.69
72359;BME280;60317;48.880;-0.862;2022-12-18T04:25:07;100686.13;;;20.12;22.78
72359;BME280;60317;48.880;-0.862;2022-12-18T04:27:34;100681.63;;;20.13;22.74
72359;BME280;60317;48.880;-0.862;2022-12-18T04:30:00;100675.41;;;20.12;22.77
72359;BME280;60317;48.880;-0.862;2022-12-18T04:32:27;100671.88;;;20.12;22.83
72359;BME280;60317;48.880;-0.862;2022-12-18T04:34:53;100661.25;;;20.10;22.84
72359;BME280;60317;48.880;-0.862;2022-12-18T04:37:19;100669.19;;;20.12;22.72
72359;BME280;60317;48.880;-0.862;2022-12-18T04:39:46;100663.81;;;20.12;22.72
72359;BME280;60317;48.880;-0.862;2022-12-18T04:42:13;100670.13;;;20.11;22.77
72359;BME280;60317;48.880;-0.862;2022-12-18T04:44:40;100660.41;;;20.10;22.77
72359;BME280;60317;48.880;-0.862;2022-12-18T04:47:06;100656.72;;;20.11;22.85
72359;BME280;60317;48.880;-0.862;2022-12-18T04:49:32;100655.03;;;20.10;22.64
72359;BME280;60317;48.880;-0.862;2022-12-18T04:51:59;100653.19;;;20.10;22.75
72359;BME280;60317;48.880;-0.862;2022-12-18T04:54:25;100649.66;;;20.10;22.84
72359;BME280;60317;48.880;-0.862;2022-12-18T04:56:51;100646.97;;;20.10;22.91
72359;BME280;60317;48.880;-0.862;2022-12-18T04:59:20;100638.06;;;20.09;22.79
72359;BME280;60317;48.880;-0.862;2022-12-18T05:01:46;100631.03;;;20.08;22.84
72359;BME280;60317;48.880;-0.862;2022-12-18T05:04:13;100631.97;;;20.07;22.93
72359;BME280;60317;48.880;-0.862;2022-12-18T05:06:39;100624.91;;;20.06;22.86
72359;BME280;60317;48.880;-0.862;2022-12-18T05:09:05;100617.72;;;20.07;22.98
72359;BME280;60317;48.880;-0.862;2022-12-18T05:11:32;100619.53;;;20.06;22.85
72359;BME280;60317;48.880;-0.862;2022-12-18T05:13:58;100600.63;;;20.08;22.92
72359;BME280;60317;48.880;-0.862;2022-12-18T05:16:26;100595.41;;;20.06;22.92
72359;BME280;60317;48.880;-0.862;2022-12-18T05:18:52;100601.63;;;20.07;22.98
72359;BME280;60317;48.880;-0.862;2022-12-18T05:21:19;100614.19;;;20.06;23.25
72359;BME280;60317;48.880;-0.862;2022-12-18T05:23:45;100618.56;;;20.07;22.97
72359;BME280;60317;48.880;-0.862;2022-12-18T05:26:14;100609.81;;;20.05;23.05
72359;BME280;60317;48.880;-0.862;2022-12-18T05:28:40;100600.75;;;20.06;22.99
72359;BME280;60317;48.880;-0.862;2022-12-18T05:31:07;100602.59;;;20.06;22.93
72359;BME280;60317;48.880;-0.862;2022-12-18T05:33:35;100599.91;;;20.06;22.95
72359;BME280;60317;48.880;-0.862;2022-12-18T05:36:02;100595.53;;;20.05;23.04
72359;BME280;60317;48.880;-0.862;2022-12-18T05:38:29;100595.53;;;20.05;22.95
72359;BME280;60317;48.880;-0.862;2022-12-18T05:40:56;100590.19;;;20.05;23.05
72359;BME280;60317;48.880;-0.862;2022-12-18T05:43:23;100583.81;;;20.06;23.09
72359;BME280;60317;48.880;-0.862;2022-12-18T05:45:50;100571.41;;;20.05;23.03
72359;BME280;60317;48.880;-0.862;2022-12-18T05:48:16;100569.66;;;20.03;23.15
72359;BME280;60317;48.880;-0.862;2022-12-18T05:50:45;100565.16;;;20.04;23.15
72359;BME280;60317;48.880;-0.862;2022-12-18T05:53:12;100564.31;;;20.03;23.07
72359;BME280;60317;48.880;-0.862;2022-12-18T05:55:39;100560.78;;;20.03;23.12
72359;BME280;60317;48.880;-0.862;2022-12-18T05:58:06;100559.94;;;20.02;23.26
72359;BME280;60317;48.880;-0.862;2022-12-18T06:00:34;100551.88;;;20.02;23.23
72359;BME280;60317;48.880;-0.862;2022-12-18T06:03:01;100549.34;;;20.01;23.07
72359;BME280;60317;48.880;-0.862;2022-12-18T06:05:27;100539.44;;;20.01;23.18
72359;BME280;60317;48.880;-0.862;2022-12-18T06:07:55;100549.34;;;20.01;23.19
72359;BME280;60317;48.880;-0.862;2022-12-18T06:10:21;100546.50;;;20.02;23.26
72359;BME280;60317;48.880;-0.862;2022-12-18T06:12:48;100535.94;;;20.01;23.19
72359;BME280;60317;48.880;-0.862;2022-12-18T06:15:14;100528.72;;;20.01;23.35
72359;BME280;60317;48.880;-0.862;2022-12-18T06:17:42;100526.16;;;20.00;23.26
72359;BME280;60317;48.880;-0.862;2022-12-18T06:20:09;100529.69;;;20.00;23.39
72359;BME280;60317;48.880;-0.862;2022-12-18T06:22:35;100523.34;;;20.01;23.31
72359;BME280;60317;48.880;-0.862;2022-12-18T06:25:04;100510.06;;;20.00;23.27
72359;BME280;60317;48.880;-0.862;2022-12-18T06:27:30;100508.34;;;19.99;23.51
72359;BME280;60317;48.880;-0.862;2022-12-18T06:29:56;100511.03;;;19.99;23.46
72359;BME280;60317;48.880;-0.862;2022-12-18T06:32:23;100521.78;;;19.99;23.50
72359;BME280;60317;48.880;-0.862;2022-12-18T06:34:49;100520.78;;;20.00;23.27
72359;BME280;60317;48.880;-0.862;2022-12-18T06:37:15;100509.22;;;19.99;23.49
72359;BME280;60317;48.880;-0.862;2022-12-18T06:39:42;100511.03;;;19.99;23.52
72359;BME280;60317;48.880;-0.862;2022-12-18T06:42:09;100517.25;;;19.99;23.46
72359;BME280;60317;48.880;-0.862;2022-12-18T06:44:36;100525.44;;;19.98;23.47
72359;BME280;60317;48.880;-0.862;2022-12-18T06:47:02;100526.41;;;19.97;23.60
72359;BME280;60317;48.880;-0.862;2022-12-18T06:49:28;100538.00;;;19.97;23.51
72359;BME280;60317;48.880;-0.862;2022-12-18T06:51:56;100535.31;;;19.97;23.62
72359;BME280;60317;48.880;-0.862;2022-12-18T06:54:22;100530.91;;;19.96;23.64
72359;BME280;60317;48.880;-0.862;2022-12-18T06:56:49;100528.25;;;19.96;23.58
72359;BME280;60317;48.880;-0.862;2022-12-18T06:59:17;100525.56;;;19.96;23.76
72359;BME280;60317;48.880;-0.862;2022-12-18T07:01:53;100525.56;;;19.96;23.53
72359;BME280;60317;48.880;-0.862;2022-12-18T07:04:33;100532.91;;;19.94;23.70
72359;BME280;60317;48.880;-0.862;2022-12-18T07:06:59;100532.06;;;19.94;23.70
72359;BME280;60317;48.880;-0.862;2022-12-18T07:09:25;100528.38;;;19.95;23.74
72359;BME280;60317;48.880;-0.862;2022-12-18T07:11:54;100533.75;;;19.95;23.80
72359;BME280;60317;48.880;-0.862;2022-12-18T07:14:22;100531.06;;;19.95;23.79
72359;BME280;60317;48.880;-0.862;2022-12-18T07:16:49;100519.59;;;19.93;23.89
72359;BME280;60317;48.880;-0.862;2022-12-18T07:19:15;100514.22;;;19.93;23.97
72359;BME280;60317;48.880;-0.862;2022-12-18T07:21:41;100502.66;;;19.92;23.94
72359;BME280;60317;48.880;-0.862;2022-12-18T07:24:08;100505.34;;;19.92;23.99
72359;BME280;60317;48.880;-0.862;2022-12-18T07:26:34;100500.81;;;19.93;23.92
72359;BME280;60317;48.880;-0.862;2022-12-18T07:29:00;100505.34;;;19.92;23.98
72359;BME280;60317;48.880;-0.862;2022-12-18T07:31:28;100506.19;;;19.93;24.03
72359;BME280;60317;48.880;-0.862;2022-12-18T07:33:55;100510.84;;;19.91;23.98
72359;BME280;60317;48.880;-0.862;2022-12-18T07:36:21;100512.53;;;19.92;24.11
72359;BME280;60317;48.880;-0.862;2022-12-18T07:38:47;100503.66;;;19.91;24.04
72359;BME280;60317;48.880;-0.862;2022-12-18T07:41:14;100510.84;;;19.91;24.17
72359;BME280;60317;48.880;-0.862;2022-12-18T07:43:40;100508.16;;;19.91;24.12
72359;BME280;60317;48.880;-0.862;2022-12-18T07:46:08;100510.00;;;19.90;24.27
72359;BME280;60317;48.880;-0.862;2022-12-18T07:48:36;100507.31;;;19.90;24.14
72359;BME280;60317;48.880;-0.862;2022-12-18T07:51:04;100511.69;;;19.91;24.32
72359;BME280;60317;48.880;-0.862;2022-12-18T07:53:31;100498.38;;;19.90;24.27
72359;BME280;60317;48.880;-0.862;2022-12-18T07:55:58;100502.78;;;19.91;24.38
72359;BME280;60317;48.880;-0.862;2022-12-18T07:58:44;100492.06;;;19.91;24.39
72359;BME280;60317;48.880;-0.862;2022-12-18T08:01:13;100487.66;;;19.90;24.21
72359;BME280;60317;48.880;-0.862;2022-12-18T08:03:41;100496.69;;;19.89;24.50
72359;BME280;60317;48.880;-0.862;2022-12-18T08:06:09;100495.72;;;19.90;24.42
72359;BME280;60317;48.880;-0.862;2022-12-18T08:08:35;100499.38;;;19.89;24.58
72359;BME280;60317;48.880;-0.862;2022-12-18T08:11:02;100501.22;;;19.88;24.47
72359;BME280;60317;48.880;-0.862;2022-12-18T08:13:28;100507.44;;;19.89;24.52
72359;BME280;60317;48.880;-0.862;2022-12-18T08:15:55;100494.16;;;19.87;24.63
72359;BME280;60317;48.880;-0.862;2022-12-18T08:18:21;100495.13;;;19.86;24.58
72359;BME280;60317;48.880;-0.862;2022-12-18T08:20:49;100492.31;;;19.88;24.60
72359;BME280;60317;48.880;-0.862;2022-12-18T08:23:15;100491.47;;;19.87;24.67
72359;BME280;60317;48.880;-0.862;2022-12-18T08:25:42;100487.94;;;19.87;24.70
72359;BME280;60317;48.880;-0.862;2022-12-18T08:28:08;100496.00;;;19.87;24.62
72359;BME280;60317;48.880;-0.862;2022-12-18T08:30:35;100488.91;;;19.86;24.69
72359;BME280;60317;48.880;-0.862;2022-12-18T08:33:01;100495.25;;;19.85;24.84
72359;BME280;60317;48.880;-0.862;2022-12-18T08:35:28;100500.75;;;19.83;24.85
72359;BME280;60317;48.880;-0.862;2022-12-18T08:38:02;100507.94;;;19.83;24.87
72359;BME280;60317;48.880;-0.862;2022-12-18T08:40:29;100515.03;;;19.84;24.83
72359;BME280;60317;48.880;-0.862;2022-12-18T08:42:55;100511.50;;;19.83;24.91
72359;BME280;60317;48.880;-0.862;2022-12-18T08:45:22;100510.75;;;19.81;24.91
72359;BME280;60317;48.880;-0.862;2022-12-18T08:47:48;100515.28;;;19.81;25.00
72359;BME280;60317;48.880;-0.862;2022-12-18T08:50:14;100521.47;;;19.81;24.96
72359;BME280;60317;48.880;-0.862;2022-12-18T08:52:41;100533.19;;;19.80;25.01
72359;BME280;60317;48.880;-0.862;2022-12-18T08:55:09;100524.28;;;19.79;25.16
72359;BME280;60317;48.880;-0.862;2022-12-18T08:57:35;100534.16;;;19.79;25.07
72359;BME280;60317;48.880;-0.862;2022-12-18T09:00:02;100536.84;;;19.79;25.19
72359;BME280;60317;48.880;-0.862;2022-12-18T09:02:29;100528.78;;;19.79;25.18
72359;BME280;60317;48.880;-0.862;2022-12-18T09:04:55;100527.94;;;19.78;25.16
72359;BME280;60317;48.880;-0.862;2022-12-18T09:07:23;100530.63;;;19.78;25.14
72359;BME280;60317;48.880;-0.862;2022-12-18T09:09:49;100527.09;;;19.78;25.18
72359;BME280;60317;48.880;-0.862;2022-12-18T09:12:17;100526.25;;;19.77;25.20
72359;BME280;60317;48.880;-0.862;2022-12-18T09:14:43;100517.38;;;19.77;25.27
72359;BME280;60317;48.880;-0.862;2022-12-18T09:17:09;100516.50;;;19.76;25.25
72359;BME280;60317;48.880;-0.862;2022-12-18T09:19:36;100514.69;;;19.77;25.28
72359;BME280;60317;48.880;-0.862;2022-12-18T09:22:02;100504.91;;;19.76;25.28
72359;BME280;60317;48.880;-0.862;2022-12-18T09:24:28;100503.09;;;19.76;25.26
72359;BME280;60317;48.880;-0.862;2022-12-18T09:26:55;100506.75;;;19.75;25.41
72359;BME280;60317;48.880;-0.862;2022-12-18T09:29:24;100504.06;;;19.75;25.45
72359;BME280;60317;48.880;-0.862;2022-12-18T09:31:51;100498.00;;;19.73;25.36
72359;BME280;60317;48.880;-0.862;2022-12-18T09:34:17;100490.78;;;19.74;25.47
72359;BME280;60317;48.880;-0.862;2022-12-18T09:36:43;100479.34;;;19.72;25.54
72359;BME280;60317;48.880;-0.862;2022-12-18T09:39:10;100484.69;;;19.72;25.41
72359;BME280;60317;48.880;-0.862;2022-12-18T09:41:39;100485.44;;;19.74;25.53
72359;BME280;60317;48.880;-0.862;2022-12-18T09:44:10;100476.66;;;19.72;25.53
72359;BME280;60317;48.880;-0.862;2022-12-18T09:46:40;100479.47;;;19.70;25.63
72359;BME280;60317;48.880;-0.862;2022-12-18T09:49:11;100465.94;;;19.72;25.67
72359;BME280;60317;48.880;-0.862;2022-12-18T09:51:39;100472.28;;;19.71;25.74
72359;BME280;60317;48.880;-0.862;2022-12-18T09:54:11;100473.13;;;19.71;25.68
72359;BME280;60317;48.880;-0.862;2022-12-18T09:56:39;100473.25;;;19.70;25.76
72359;BME280;60317;48.880;-0.862;2022-12-18T09:59:09;100459.84;;;19.70;25.71
72359;BME280;60317;48.880;-0.862;2022-12-18T10:01:41;100459.84;;;19.70;25.74
72359;BME280;60317;48.880;-0.862;2022-12-18T10:04:11;100466.19;;;19.69;25.80
72359;BME280;60317;48.880;-0.862;2022-12-18T10:06:38;100460.97;;;19.67;25.87
72359;BME280;60317;48.880;-0.862;2022-12-18T10:09:09;100456.44;;;19.68;25.87
72359;BME280;60317;48.880;-0.862;2022-12-18T10:11:43;100449.38;;;19.67;25.91
72359;BME280;60317;48.880;-0.862;2022-12-18T10:14:15;100441.44;;;19.65;26.01
72359;BME280;60317;48.880;-0.862;2022-12-18T10:16:47;100447.69;;;19.66;25.95
72359;BME280;60317;48.880;-0.862;2022-12-18T10:19:24;100447.69;;;19.66;26.14
72359;BME280;60317;48.880;-0.862;2022-12-18T10:21:56;100440.59;;;19.65;25.97
72359;BME280;60317;48.880;-0.862;2022-12-18T10:24:28;100439.75;;;19.64;26.09
72359;BME280;60317;48.880;-0.862;2022-12-18T10:26:59;100429.03;;;19.64;25.99
72359;BME280;60317;48.880;-0.862;2022-12-18T10:29:29;100427.34;;;19.63;26.14
72359;BME280;60317;48.880;-0.862;2022-12-18T10:34:58;100416.84;;;19.60;26.11
72359;BME280;60317;48.880;-0.862;2022-12-18T10:37:27;100408.06;;;19.58;26.25
72359;BME280;60317;48.880;-0.862;2022-12-18T10:42:30;100400.16;;;19.57;26.25
72359;BME280;60317;48.880;-0.862;2022-12-18T10:45:00;100407.34;;;19.56;26.43
72359;BME280;60317;48.880;-0.862;2022-12-18T10:47:27;100408.34;;;19.55;26.31
72359;BME280;60317;48.880;-0.862;2022-12-18T10:49:54;100402.25;;;19.53;26.55
72359;BME280;60317;48.880;-0.862;2022-12-18T10:52:29;100402.38;;;19.51;26.56
72359;BME280;60317;48.880;-0.862;2022-12-18T10:54:57;100391.94;;;19.48;26.51
72359;BME280;60317;48.880;-0.862;2022-12-18T10:57:33;100393.63;;;19.49;26.66
72359;BME280;60317;48.880;-0.862;2022-12-18T11:00:03;100391.94;;;19.48;26.64
72359;BME280;60317;48.880;-0.862;2022-12-18T11:02:39;100385.84;;;19.46;26.58
72359;BME280;60317;48.880;-0.862;2022-12-18T11:05:22;100387.78;;;19.44;26.64
72359;BME280;60317;48.880;-0.862;2022-12-18T11:07:50;100376.22;;;19.44;26.78
72359;BME280;60317;48.880;-0.862;2022-12-18T11:10:17;100375.50;;;19.42;26.74
72359;BME280;60317;48.880;-0.862;2022-12-18T11:12:44;100371.00;;;19.42;26.78
72359;BME280;60317;48.880;-0.862;2022-12-18T11:15:13;100370.25;;;19.40;26.75
72359;BME280;60317;48.880;-0.862;2022-12-18T11:17:40;100362.22;;;19.40;26.85
72359;BME280;60317;48.880;-0.862;2022-12-18T11:20:19;100358.00;;;19.38;26.89
72359;BME280;60317;48.880;-0.862;2022-12-18T11:22:55;100361.63;;;19.37;26.97
72359;BME280;60317;48.880;-0.862;2022-12-18T11:25:22;100361.75;;;19.35;27.05
72359;BME280;60317;48.880;-0.862;2022-12-18T11:28:00;100365.53;;;19.33;27.04
72359;BME280;60317;48.880;-0.862;2022-12-18T11:30:28;100360.19;;;19.33;27.02
72359;BME280;60317;48.880;-0.862;2022-12-18T11:32:56;100357.66;;;19.31;27.10
72359;BME280;60317;48.880;-0.862;2022-12-18T11:35:30;100356.81;;;19.30;27.12
72359;BME280;60317;48.880;-0.862;2022-12-18T11:38:02;100356.22;;;19.27;27.12
72359;BME280;60317;48.880;-0.862;2022-12-18T11:40:42;100360.59;;;19.28;27.20
72359;BME280;60317;48.880;-0.862;2022-12-18T11:43:10;100355.34;;;19.26;27.13
72359;BME280;60317;48.880;-0.862;2022-12-18T11:45:40;100361.81;;;19.24;27.18
72359;BME280;60317;48.880;-0.862;2022-12-18T11:48:09;100352.06;;;19.23;27.20
72359;BME280;60317;48.880;-0.862;2022-12-18T11:50:41;100369.13;;;19.22;27.25
72359;BME280;60317;48.880;-0.862;2022-12-18T11:53:12;100362.91;;;19.21;27.28
72359;BME280;60317;48.880;-0.862;2022-12-18T11:55:40;100350.63;;;19.19;27.50
72359;BME280;60317;48.880;-0.862;2022-12-18T11:58:10;100342.59;;;19.19;27.35
72359;BME280;60317;48.880;-0.862;2022-12-18T12:00:40;100333.84;;;19.17;27.34
72359;BME280;60317;48.880;-0.862;2022-12-18T12:03:15;100323.97;;;19.17;27.49
72359;BME280;60317;48.880;-0.862;2022-12-18T12:05:49;100316.19;;;19.14;27.47
72359;BME280;60317;48.880;-0.862;2022-12-18T12:08:20;100311.66;;;19.15;27.41
72359;BME280;60317;48.880;-0.862;2022-12-18T12:13:44;100307.56;;;19.11;27.58
72359;BME280;60317;48.880;-0.862;2022-12-18T12:16:15;100305.88;;;19.10;27.61
72359;BME280;60317;48.880;-0.862;2022-12-18T12:21:20;100305.13;;;19.07;27.69
72359;BME280;60317;48.880;-0.862;2022-12-18T12:23:53;100294.66;;;19.04;27.70
72359;BME280;60317;48.880;-0.862;2022-12-18T12:26:23;100286.63;;;19.04;27.78
72359;BME280;60317;48.880;-0.862;2022-12-18T12:28:57;100284.94;;;19.03;27.78
72359;BME280;60317;48.880;-0.862;2022-12-18T12:31:32;100282.25;;;19.03;27.87
72359;BME280;60317;48.880;-0.862;2022-12-18T12:34:01;100264.59;;;19.01;27.98
72359;BME280;60317;48.880;-0.862;2022-12-18T12:36:33;100246.84;;;19.00;27.94
72359;BME280;60317;48.880;-0.862;2022-12-18T12:39:07;100239.78;;;18.99;27.94
72359;BME280;60317;48.880;-0.862;2022-12-18T12:44:15;100228.22;;;18.98;28.12
72359;BME280;60317;48.880;-0.862;2022-12-18T12:46:43;100211.44;;;18.96;28.10
72359;BME280;60317;48.880;-0.862;2022-12-18T12:49:11;100207.91;;;18.96;28.02
72359;BME280;60317;48.880;-0.862;2022-12-18T12:51:40;100196.31;;;18.95;28.00
72359;BME280;60317;48.880;-0.862;2022-12-18T12:54:11;100208.03;;;18.94;28.21
72359;BME280;60317;48.880;-0.862;2022-12-18T12:56:42;100208.19;;;18.93;28.20
72359;BME280;60317;48.880;-0.862;2022-12-18T12:59:15;100213.66;;;18.91;28.25
72359;BME280;60317;48.880;-0.862;2022-12-18T13:01:49;100219.97;;;18.90;28.22